Time,TemperatureF,DewpointF,PressureIn,WindDirection,WindDirectionDegrees,WindSpeedMPH,WindSpeedGustMPH,Humidity,HourlyPrecipIn,Conditions,Clouds,dailyrainin,SoftwareType,DateUTC
2013-09-12 00:01:00,52.4,49.0,30.02,West,279,0.0,-999.0,87,-99.99,,,0.06,weatherlink.com 1.10,2013-09-12 05:01:00,
2013-09-12 00:16:00,52.2,49.0,30.03,West,279,0.0,-999.0,87,-99.99,,,0.06,weatherlink.com 1.10,2013-09-12 05:16:00,
2013-09-12 00:31:00,51.9,48.0,30.03,West,280,1.0,-999.0,87,-99.99,,,0.06,weatherlink.com 1.10,2013-09-12 05:31:00,
2013-09-12 00:46:00,52.0,48.0,30.03,West,263,0.0,-999.0,87,-99.99,,,0.06,weatherlink.com 1.10,2013-09-12 05:46:00,
2013-09-12 01:01:00,51.8,48.0,30.03,West,263,0.0,-999.0,87,-99.99,,,0.00,weatherlink.com 1.10,2013-09-12 06:01:00,
2013-09-12 01:16:00,51.4,48.0,30.04,West,263,0.0,-999.0,87,-99.99,,,0.00,weatherlink.com 1.10,2013-09-12 06:16:00,
2013-09-12 01:31:00,51.3,48.0,30.04,West,263,1.0,-999.0,87,-99.99,,,0.00,weatherlink.com 1.10,2013-09-12 06:31:00,
2013-09-12 01:46:00,51.4,48.0,30.04,West,263,0.0,-999.0,87,-99.99,,,0.00,weatherlink.com 1.10,2013-09-12 06:46:00,
2013-09-12 02:01:00,51.1,48.0,30.04,West,263,2.0,-999.0,88,-99.99,,,0.00,weatherlink.com 1.10,2013-09-12 07:01:00,
2013-09-12 02:16:00,51.1,48.0,30.04,West,263,0.0,-999.0,88,-99.99,,,0.00,weatherlink.com 1.10,2013-09-12 07:16:00,
2013-09-12 02:31:00,51.1,48.0,30.04,West,263,3.0,-999.0,88,-99.99,,,0.00,weatherlink.com 1.10,2013-09-12 07:31:00,
2013-09-12 02:46:00,51.4,48.0,30.04,West,263,1.0,-999.0,88,-99.99,,,0.00,weatherlink.com 1.10,2013-09-12 07:46:00,
2013-09-12 03:01:00,51.3,48.0,30.04,West,263,0.0,-999.0,88,-99.99,,,0.00,weatherlink.com 1.10,2013-09-12 08:01:00,
2013-09-12 03:16:00,51.1,48.0,30.05,West,263,0.0,-999.0,88,-99.99,,,0.00,weatherlink.com 1.10,2013-09-12 08:16:00,
2013-09-12 03:31:00,50.6,47.0,30.04,West,263,0.0,-999.0,87,-99.99,,,0.00,weatherlink.com 1.10,2013-09-12 08:31:00,
2013-09-12 03:46:00,50.7,47.0,30.04,West,263,0.0,-999.0,88,-99.99,,,0.00,weatherlink.com 1.10,2013-09-12 08:46:00,
2013-09-12 04:01:00,51.2,48.0,30.03,West,263,0.0,-999.0,88,-99.99,,,0.00,weatherlink.com 1.10,2013-09-12 09:01:00,
2013-09-12 04:16:00,50.9,48.0,30.04,West,263,0.0,-999.0,88,-99.99,,,0.00,weatherlink.com 1.10,2013-09-12 09:16:00,
2013-09-12 04:31:00,50.6,47.0,30.05,West,263,0.0,-999.0,88,-99.99,,,0.00,weatherlink.com 1.10,2013-09-12 09:31:00,
2013-09-12 04:46:00,50.8,47.0,30.06,West,263,1.0,-999.0,88,-99.99,,,0.01,weatherlink.com 1.10,2013-09-12 09:46:00,
2013-09-12 05:01:00,51.3,48.0,30.06,West,263,3.0,-999.0,88,-99.99,,,0.01,weatherlink.com 1.10,2013-09-12 10:01:00,
2013-09-12 05:16:00,51.0,48.0,30.06,West,263,0.0,-999.0,88,-99.99,,,0.01,weatherlink.com 1.10,2013-09-12 10:16:00,
2013-09-12 05:31:00,50.9,48.0,30.07,West,263,0.0,-999.0,88,-99.99,,,0.01,weatherlink.com 1.10,2013-09-12 10:31:00,
2013-09-12 05:46:00,51.0,48.0,30.07,West,263,0.0,-999.0,88,-99.99,,,0.01,weatherlink.com 1.10,2013-09-12 10:46:00,
2013-09-12 06:01:00,50.7,47.0,30.08,West,263,0.0,-999.0,88,-99.99,,,0.01,weatherlink.com 1.10,2013-09-12 11:01:00,
2013-09-12 06:16:00,50.5,47.0,30.08,West,263,0.0,-999.0,88,-99.99,,,0.01,weatherlink.com 1.10,2013-09-12 11:16:00,
2013-09-12 06:31:00,50.0,47.0,30.09,West,263,0.0,-999.0,88,-99.99,,,0.01,weatherlink.com 1.10,2013-09-12 11:31:00,
2013-09-12 06:46:00,50.1,47.0,30.09,West,263,0.0,-999.0,88,-99.99,,,0.01,weatherlink.com 1.10,2013-09-12 11:46:00,
2013-09-12 07:01:00,50.4,47.0,30.10,West,263,0.0,-999.0,88,-99.99,,,0.01,weatherlink.com 1.10,2013-09-12 12:01:00,
2013-09-12 07:16:00,50.4,47.0,30.11,West,263,0.0,-999.0,88,-99.99,,,0.01,weatherlink.com 1.10,2013-09-12 12:16:00,
2013-09-12 07:31:00,51.8,49.0,30.11,West,263,0.0,-999.0,89,-99.99,,,0.01,weatherlink.com 1.10,2013-09-12 12:31:00,
2013-09-12 07:46:00,52.2,49.0,30.12,West,263,0.0,-999.0,89,-99.99,,,0.01,weatherlink.com 1.10,2013-09-12 12:46:00,
2013-09-12 08:01:00,52.5,49.0,30.12,West,270,2.0,-999.0,89,-99.99,,,0.01,weatherlink.com 1.10,2013-09-12 13:01:00,
2013-09-12 08:16:00,52.8,49.0,30.12,West,270,1.0,-999.0,88,-99.99,,,0.01,weatherlink.com 1.10,2013-09-12 13:16:00,
2013-09-12 08:31:00,53.3,50.0,30.12,West,270,0.0,-999.0,88,-99.99,,,0.01,weatherlink.com 1.10,2013-09-12 13:31:00,
2013-09-12 08:46:00,53.9,50.0,30.12,West,270,0.0,-999.0,87,-99.99,,,0.01,weatherlink.com 1.10,2013-09-12 13:46:00,
2013-09-12 09:01:00,54.3,50.0,30.12,West,271,0.0,-999.0,85,-99.99,,,0.01,weatherlink.com 1.10,2013-09-12 14:01:00,
2013-09-12 09:17:00,55.6,51.0,30.13,West,271,0.0,-999.0,85,-99.99,,,0.01,weatherlink.com 1.10,2013-09-12 14:17:00,
2013-09-12 09:32:00,56.2,51.0,30.13,West,271,4.0,-999.0,83,-99.99,,,0.01,weatherlink.com 1.10,2013-09-12 14:32:00,
2013-09-12 09:47:00,56.2,50.0,30.14,WNW,282,5.0,-999.0,81,-99.99,,,0.01,weatherlink.com 1.10,2013-09-12 14:47:00,
2013-09-12 10:02:00,57.5,51.0,30.14,West,259,6.0,-999.0,78,-99.99,,,0.01,weatherlink.com 1.10,2013-09-12 15:02:00,
2013-09-12 10:17:00,57.4,51.0,30.14,WSW,257,1.0,-999.0,78,-99.99,,,0.01,weatherlink.com 1.10,2013-09-12 15:17:00,
2013-09-12 10:32:00,58.4,52.0,30.14,WSW,254,5.0,-999.0,78,-99.99,,,0.01,weatherlink.com 1.10,2013-09-12 15:32:00,
2013-09-12 10:47:00,60.2,52.0,30.15,West,260,0.0,-999.0,73,-99.99,,,0.01,weatherlink.com 1.10,2013-09-12 15:47:00,
2013-09-12 11:02:00,59.1,50.0,30.15,WNW,289,0.0,-999.0,71,-99.99,,,0.01,weatherlink.com 1.10,2013-09-12 16:02:00,
2013-09-12 11:17:00,59.1,48.0,30.15,WNW,303,0.0,-999.0,68,-99.99,,,0.01,weatherlink.com 1.10,2013-09-12 16:17:00,
2013-09-12 11:32:00,60.9,50.0,30.15,WSW,250,0.0,-999.0,67,-99.99,,,0.01,weatherlink.com 1.10,2013-09-12 16:32:00,
2013-09-12 11:47:00,62.1,49.0,30.16,WNW,286,3.0,-999.0,63,-99.99,,,0.01,weatherlink.com 1.10,2013-09-12 16:47:00,
2013-09-12 12:02:00,63.2,49.0,30.15,West,259,8.0,-999.0,61,-99.99,,,0.01,weatherlink.com 1.10,2013-09-12 17:02:00,
2013-09-12 12:17:00,63.0,49.0,30.15,WNW,292,4.0,-999.0,60,-99.99,,,0.01,weatherlink.com 1.10,2013-09-12 17:17:00,
2013-09-12 12:32:00,62.8,48.0,30.16,West,266,0.0,-999.0,59,-99.99,,,0.01,weatherlink.com 1.10,2013-09-12 17:32:00,
2013-09-12 12:47:00,63.8,47.0,30.15,North,350,4.0,-999.0,55,-99.99,,,0.01,weatherlink.com 1.10,2013-09-12 17:47:00,
2013-09-12 13:02:00,64.9,47.0,30.15,West,267,6.0,-999.0,53,-99.99,,,0.01,weatherlink.com 1.10,2013-09-12 18:02:00,
2013-09-12 13:17:00,64.0,46.0,30.15,West,263,0.0,-999.0,52,-99.99,,,0.01,weatherlink.com 1.10,2013-09-12 18:17:00,
2013-09-12 13:32:00,64.2,46.0,30.16,WNW,285,3.0,-999.0,52,-99.99,,,0.01,weatherlink.com 1.10,2013-09-12 18:32:00,
2013-09-12 13:47:00,65.2,46.0,30.16,NNE,12,9.0,-999.0,51,-99.99,,,0.01,weatherlink.com 1.10,2013-09-12 18:47:00,
2013-09-12 14:02:00,64.4,46.0,30.16,NW,318,1.0,-999.0,51,-99.99,,,0.01,weatherlink.com 1.10,2013-09-12 19:02:00,
2013-09-12 14:17:00,64.7,45.0,30.16,West,259,2.0,-999.0,50,-99.99,,,0.01,weatherlink.com 1.10,2013-09-12 19:17:00,
2013-09-12 14:32:00,65.8,46.0,30.16,NW,324,7.0,-999.0,49,-99.99,,,0.01,weatherlink.com 1.10,2013-09-12 19:32:00,
2013-09-12 14:47:00,64.4,45.0,30.16,NE,44,3.0,-999.0,50,-99.99,,,0.01,weatherlink.com 1.10,2013-09-12 19:47:00,
2013-09-12 15:02:00,64.7,45.0,30.16,WNW,300,3.0,-999.0,49,-99.99,,,0.01,weatherlink.com 1.10,2013-09-12 20:02:00,
2013-09-12 15:17:00,64.0,47.0,30.15,SSW,211,3.0,-999.0,55,-99.99,,,0.01,weatherlink.com 1.10,2013-09-12 20:17:00,
2013-09-12 15:32:00,66.2,45.0,30.15,West,277,1.0,-999.0,47,-99.99,,,0.01,weatherlink.com 1.10,2013-09-12 20:32:00,
2013-09-12 15:47:00,66.2,45.0,30.15,WNW,292,6.0,-999.0,46,-99.99,,,0.01,weatherlink.com 1.10,2013-09-12 20:47:00,
2013-09-12 16:02:00,63.6,43.0,30.15,WSW,248,5.0,-999.0,48,-99.99,,,0.01,weatherlink.com 1.10,2013-09-12 21:02:00,
2013-09-12 16:17:00,63.3,43.0,30.15,WSW,247,5.0,-999.0,47,-99.99,,,0.01,weatherlink.com 1.10,2013-09-12 21:17:00,
2013-09-12 16:32:00,64.3,48.0,30.14,NW,324,0.0,-999.0,55,-99.99,,,0.01,weatherlink.com 1.10,2013-09-12 21:32:00,
2013-09-12 16:47:00,65.6,45.0,30.14,ENE,65,6.0,-999.0,48,-99.99,,,0.01,weatherlink.com 1.10,2013-09-12 21:47:00,
2013-09-12 17:02:00,64.5,44.0,30.14,NW,309,0.0,-999.0,47,-99.99,,,0.01,weatherlink.com 1.10,2013-09-12 22:02:00,
2013-09-12 17:17:00,64.5,44.0,30.14,North,9,2.0,-999.0,48,-99.99,,,0.01,weatherlink.com 1.10,2013-09-12 22:17:00,
2013-09-12 17:32:00,64.9,43.0,30.15,NW,313,0.0,-999.0,46,-99.99,,,0.01,weatherlink.com 1.10,2013-09-12 22:32:00,
2013-09-12 17:47:00,64.6,45.0,30.15,West,261,0.0,-999.0,49,-99.99,,,0.01,weatherlink.com 1.10,2013-09-12 22:47:00,
2013-09-12 18:02:00,62.9,44.0,30.15,WSW,244,0.0,-999.0,50,-99.99,,,0.01,weatherlink.com 1.10,2013-09-12 23:02:00,
2013-09-12 18:17:00,63.2,42.0,30.15,WSW,250,2.0,-999.0,46,-99.99,,,0.01,weatherlink.com 1.10,2013-09-12 23:17:00,
2013-09-12 18:32:00,61.5,42.0,30.15,WSW,254,0.0,-999.0,49,-99.99,,,0.01,weatherlink.com 1.10,2013-09-12 23:32:00,
2013-09-12 18:47:00,60.3,42.0,30.15,WSW,254,0.0,-999.0,52,-99.99,,,0.01,weatherlink.com 1.10,2013-09-12 23:47:00,
2013-09-12 19:02:00,58.5,43.0,30.15,WSW,254,0.0,-999.0,57,-99.99,,,0.01,weatherlink.com 1.10,2013-09-13 00:02:00,
2013-09-12 19:17:00,56.9,45.0,30.15,WSW,254,0.0,-999.0,64,-99.99,,,0.01,weatherlink.com 1.10,2013-09-13 00:17:00,
2013-09-12 19:32:00,55.6,46.0,30.15,WSW,254,0.0,-999.0,69,-99.99,,,0.01,weatherlink.com 1.10,2013-09-13 00:32:00,
2013-09-12 19:47:00,54.3,45.0,30.16,WSW,254,0.0,-999.0,72,-99.99,,,0.01,weatherlink.com 1.10,2013-09-13 00:47:00,
2013-09-12 20:02:00,53.5,45.0,30.16,WSW,254,0.0,-999.0,72,-99.99,,,0.01,weatherlink.com 1.10,2013-09-13 01:02:00,
2013-09-12 20:17:00,52.3,45.0,30.17,WSW,254,0.0,-999.0,76,-99.99,,,0.01,weatherlink.com 1.10,2013-09-13 01:17:00,
2013-09-12 20:32:00,51.1,44.0,30.17,WSW,254,0.0,-999.0,77,-99.99,,,0.01,weatherlink.com 1.10,2013-09-13 01:32:00,
2013-09-12 20:47:00,50.4,44.0,30.17,WSW,254,0.0,-999.0,79,-99.99,,,0.01,weatherlink.com 1.10,2013-09-13 01:47:00,
2013-09-12 21:02:00,49.8,44.0,30.18,WSW,254,0.0,-999.0,81,-99.99,,,0.01,weatherlink.com 1.10,2013-09-13 02:02:00,
2013-09-12 21:17:00,49.2,44.0,30.18,WSW,254,0.0,-999.0,82,-99.99,,,0.01,weatherlink.com 1.10,2013-09-13 02:17:00,
2013-09-12 21:32:00,48.9,44.0,30.18,WSW,254,0.0,-999.0,82,-99.99,,,0.01,weatherlink.com 1.10,2013-09-13 02:32:00,
2013-09-12 21:47:00,48.4,44.0,30.18,WSW,254,0.0,-999.0,83,-99.99,,,0.01,weatherlink.com 1.10,2013-09-13 02:47:00,
2013-09-12 22:03:00,48.2,44.0,30.18,WSW,254,0.0,-999.0,84,-99.99,,,0.01,weatherlink.com 1.10,2013-09-13 03:03:00,
2013-09-12 22:18:00,47.6,43.0,30.18,WSW,254,0.0,-999.0,84,-99.99,,,0.01,weatherlink.com 1.10,2013-09-13 03:18:00,
2013-09-12 22:33:00,47.3,43.0,30.18,WSW,254,0.0,-999.0,84,-99.99,,,0.01,weatherlink.com 1.10,2013-09-13 03:33:00,
2013-09-12 22:48:00,47.0,43.0,30.18,WSW,254,0.0,-999.0,85,-99.99,,,0.01,weatherlink.com 1.10,2013-09-13 03:48:00,
2013-09-12 23:03:00,46.6,42.0,30.19,WSW,254,0.0,-999.0,85,-99.99,,,0.01,weatherlink.com 1.10,2013-09-13 04:03:00,
2013-09-12 23:18:00,46.6,43.0,30.18,WSW,254,0.0,-999.0,86,-99.99,,,0.01,weatherlink.com 1.10,2013-09-13 04:18:00,
2013-09-12 23:33:00,46.3,42.0,30.19,WSW,254,0.0,-999.0,86,-99.99,,,0.01,weatherlink.com 1.10,2013-09-13 04:33:00,
2013-09-12 23:48:00,46.0,42.0,30.19,WSW,254,0.0,-999.0,86,-99.99,,,0.01,weatherlink.com 1.10,2013-09-13 04:48:00,